sensor_id;sensor_type;location;lat;lon;timestamp;P1;durP1;ratioP1;P2;durP2;ratioP2
39300;SDS011;25019;42.626;23.380;2022-08-01T00:01:04;1.90;;;1.80;;
39300;SDS011;25019;42.626;23.380;2022-08-01T00:03:29;3.97;;;1.77;;
39300;SDS011;25019;42.626;23.380;2022-08-01T00:05:55;3.50;;;2.00;;
39300;SDS011;25019;42.626;23.380;2022-08-01T00:08:20;2.57;;;1.80;;
39300;SDS011;25019;42.626;23.380;2022-08-01T00:10:46;2.10;;;1.70;;
39300;SDS011;25019;42.626;23.380;2022-08-01T00:13:11;1.60;;;1.50;;
39300;SDS011;25019;42.626;23.380;2022-08-01T00:15:37;1.80;;;1.70;;
39300;SDS011;25019;42.626;23.380;2022-08-01T00:18:03;3.20;;;1.80;;
39300;SDS011;25019;42.626;23.380;2022-08-01T00:20:28;3.53;;;1.70;;
39300;SDS011;25019;42.626;23.380;2022-08-01T00:22:54;6.50;;;2.03;;
39300;SDS011;25019;42.626;23.380;2022-08-01T00:25:20;1.83;;;1.50;;
39300;SDS011;25019;42.626;23.380;2022-08-01T00:27:45;1.60;;;1.43;;
39300;SDS011;25019;42.626;23.380;2022-08-01T00:30:11;2.43;;;1.77;;
39300;SDS011;25019;42.626;23.380;2022-08-01T00:32:36;1.70;;;1.60;;
39300;SDS011;25019;42.626;23.380;2022-08-01T00:35:02;1.77;;;1.37;;
39300;SDS011;25019;42.626;23.380;2022-08-01T00:37:28;3.63;;;2.50;;
39300;SDS011;25019;42.626;23.380;2022-08-01T00:39:54;5.10;;;4.53;;
39300;SDS011;25019;42.626;23.380;2022-08-01T00:42:19;6.23;;;5.67;;
39300;SDS011;25019;42.626;23.380;2022-08-01T00:44:46;6.10;;;5.60;;
39300;SDS011;25019;42.626;23.380;2022-08-01T00:47:12;6.57;;;6.07;;
39300;SDS011;25019;42.626;23.380;2022-08-01T00:49:37;7.17;;;6.53;;
39300;SDS011;25019;42.626;23.380;2022-08-01T00:52:03;7.23;;;6.53;;
39300;SDS011;25019;42.626;23.380;2022-08-01T00:54:31;7.33;;;6.77;;
39300;SDS011;25019;42.626;23.380;2022-08-01T00:56:57;7.93;;;7.07;;
39300;SDS011;25019;42.626;23.380;2022-08-01T00:59:23;7.17;;;6.63;;
39300;SDS011;25019;42.626;23.380;2022-08-01T01:01:50;8.07;;;7.37;;
39300;SDS011;25019;42.626;23.380;2022-08-01T01:04:16;7.73;;;7.07;;
39300;SDS011;25019;42.626;23.380;2022-08-01T01:06:59;7.03;;;6.40;;
39300;SDS011;25019;42.626;23.380;2022-08-01T01:09:38;7.63;;;7.00;;
39300;SDS011;25019;42.626;23.380;2022-08-01T01:12:12;7.37;;;6.77;;
39300;SDS011;25019;42.626;23.380;2022-08-01T01:17:06;7.10;;;6.43;;
39300;SDS011;25019;42.626;23.380;2022-08-01T01:19:33;7.33;;;6.60;;
39300;SDS011;25019;42.626;23.380;2022-08-01T01:25:14;7.50;;;6.37;;
39300;SDS011;25019;42.626;23.380;2022-08-01T01:27:51;7.23;;;6.63;;
39300;SDS011;25019;42.626;23.380;2022-08-01T01:30:28;7.70;;;7.00;;
39300;SDS011;25019;42.626;23.380;2022-08-01T01:32:54;6.80;;;6.20;;
39300;SDS011;25019;42.626;23.380;2022-08-01T01:35:25;7.00;;;6.30;;
39300;SDS011;25019;42.626;23.380;2022-08-01T01:38:05;6.63;;;5.93;;
39300;SDS011;25019;42.626;23.380;2022-08-01T01:40:35;7.37;;;6.63;;
39300;SDS011;25019;42.626;23.380;2022-08-01T01:43:03;6.67;;;6.13;;
39300;SDS011;25019;42.626;23.380;2022-08-01T01:45:34;8.17;;;6.10;;
39300;SDS011;25019;42.626;23.380;2022-08-01T01:48:00;6.63;;;5.97;;
39300;SDS011;25019;42.626;23.380;2022-08-01T01:50:27;6.23;;;5.60;;
39300;SDS011;25019;42.626;23.380;2022-08-01T01:52:53;6.60;;;6.00;;
39300;SDS011;25019;42.626;23.380;2022-08-01T01:55:21;6.30;;;5.80;;
39300;SDS011;25019;42.626;23.380;2022-08-01T01:57:48;6.43;;;5.80;;
39300;SDS011;25019;42.626;23.380;2022-08-01T02:00:16;7.13;;;5.70;;
39300;SDS011;25019;42.626;23.380;2022-08-01T02:02:42;5.83;;;5.33;;
39300;SDS011;25019;42.626;23.380;2022-08-01T02:05:10;5.83;;;5.23;;
39300;SDS011;25019;42.626;23.380;2022-08-01T02:07:37;5.70;;;5.17;;
39300;SDS011;25019;42.626;23.380;2022-08-01T02:10:04;8.57;;;5.20;;
39300;SDS011;25019;42.626;23.380;2022-08-01T02:12:33;4.93;;;4.53;;
39300;SDS011;25019;42.626;23.380;2022-08-01T02:15:03;4.40;;;4.00;;
39300;SDS011;25019;42.626;23.380;2022-08-01T02:17:29;5.97;;;3.80;;
39300;SDS011;25019;42.626;23.380;2022-08-01T02:19:56;4.47;;;4.07;;
39300;SDS011;25019;42.626;23.380;2022-08-01T02:22:36;5.13;;;3.40;;
39300;SDS011;25019;42.626;23.380;2022-08-01T02:25:42;3.43;;;3.13;;
39300;SDS011;25019;42.626;23.380;2022-08-01T02:28:06;4.63;;;3.10;;
39300;SDS011;25019;42.626;23.380;2022-08-01T02:30:38;5.73;;;2.93;;
39300;SDS011;25019;42.626;23.380;2022-08-01T02:33:20;5.23;;;2.70;;
39300;SDS011;25019;42.626;23.380;2022-08-01T02:35:52;2.57;;;2.30;;
39300;SDS011;25019;42.626;23.380;2022-08-01T02:38:22;2.67;;;2.47;;
39300;SDS011;25019;42.626;23.380;2022-08-01T02:40:51;3.07;;;2.47;;
39300;SDS011;25019;42.626;23.380;2022-08-01T02:43:23;3.90;;;2.60;;
39300;SDS011;25019;42.626;23.380;2022-08-01T02:45:52;2.53;;;2.33;;
39300;SDS011;25019;42.626;23.380;2022-08-01T02:48:19;2.73;;;2.30;;
39300;SDS011;25019;42.626;23.380;2022-08-01T02:50:49;2.53;;;2.33;;
39300;SDS011;25019;42.626;23.380;2022-08-01T02:53:18;2.83;;;2.53;;
39300;SDS011;25019;42.626;23.380;2022-08-01T02:55:47;4.07;;;2.10;;
39300;SDS011;25019;42.626;23.380;2022-08-01T02:58:15;2.90;;;2.13;;
39300;SDS011;25019;42.626;23.380;2022-08-01T03:00:43;2.53;;;2.30;;
39300;SDS011;25019;42.626;23.380;2022-08-01T03:03:10;2.57;;;1.83;;
39300;SDS011;25019;42.626;23.380;2022-08-01T03:05:37;4.90;;;2.00;;
39300;SDS011;25019;42.626;23.380;2022-08-01T03:08:05;2.93;;;2.33;;
39300;SDS011;25019;42.626;23.380;2022-08-01T03:10:33;8.93;;;2.43;;
39300;SDS011;25019;42.626;23.380;2022-08-01T03:13:01;2.33;;;1.93;;
39300;SDS011;25019;42.626;23.380;2022-08-01T03:15:31;3.50;;;2.30;;
39300;SDS011;25019;42.626;23.380;2022-08-01T03:17:59;2.97;;;2.43;;
39300;SDS011;25019;42.626;23.380;2022-08-01T03:20:26;2.40;;;2.20;;
39300;SDS011;25019;42.626;23.380;2022-08-01T03:22:54;3.23;;;2.23;;
39300;SDS011;25019;42.626;23.380;2022-08-01T03:25:21;3.93;;;2.67;;
39300;SDS011;25019;42.626;23.380;2022-08-01T03:27:50;4.53;;;2.60;;
39300;SDS011;25019;42.626;23.380;2022-08-01T03:30:20;3.00;;;2.70;;
39300;SDS011;25019;42.626;23.380;2022-08-01T03:32:50;3.57;;;2.40;;
39300;SDS011;25019;42.626;23.380;2022-08-01T03:35:16;2.90;;;2.33;;
39300;SDS011;25019;42.626;23.380;2022-08-01T03:37:46;4.77;;;2.60;;
39300;SDS011;25019;42.626;23.380;2022-08-01T03:40:31;4.27;;;2.90;;
39300;SDS011;25019;42.626;23.380;2022-08-01T03:43:22;4.17;;;2.33;;
39300;SDS011;25019;42.626;23.380;2022-08-01T03:46:11;4.53;;;2.17;;
39300;SDS011;25019;42.626;23.380;2022-08-01T03:48:43;3.23;;;2.20;;
39300;SDS011;25019;42.626;23.380;2022-08-01T03:51:13;3.73;;;2.50;;
39300;SDS011;25019;42.626;23.380;2022-08-01T03:53:40;3.20;;;2.33;;
39300;SDS011;25019;42.626;23.380;2022-08-01T03:56:07;3.83;;;2.30;;
39300;SDS011;25019;42.626;23.380;2022-08-01T03:58:36;3.53;;;1.93;;
39300;SDS011;25019;42.626;23.380;2022-08-01T04:01:05;2.13;;;1.90;;
39300;SDS011;25019;42.626;23.380;2022-08-01T04:03:32;3.27;;;1.80;;
39300;SDS011;25019;42.626;23.380;2022-08-01T04:05:58;2.20;;;2.00;;
39300;SDS011;25019;42.626;23.380;2022-08-01T04:08:33;3.43;;;1.80;;
39300;SDS011;25019;42.626;23.380;2022-08-01T04:11:00;4.00;;;2.23;;
39300;SDS011;25019;42.626;23.380;2022-08-01T04:13:26;2.37;;;1.80;;
39300;SDS011;25019;42.626;23.380;2022-08-01T04:15:52;2.90;;;2.10;;
39300;SDS011;25019;42.626;23.380;2022-08-01T04:18:18;2.47;;;2.23;;
39300;SDS011;25019;42.626;23.380;2022-08-01T04:20:46;2.53;;;2.10;;
39300;SDS011;25019;42.626;23.380;2022-08-01T04:23:11;3.93;;;2.00;;
39300;SDS011;25019;42.626;23.380;2022-08-01T04:25:40;2.93;;;1.90;;
39300;SDS011;25019;42.626;23.380;2022-08-01T04:28:07;4.63;;;1.90;;
39300;SDS011;25019;42.626;23.380;2022-08-01T04:30:36;3.53;;;1.90;;
39300;SDS011;25019;42.626;23.380;2022-08-01T04:33:04;4.00;;;1.80;;
39300;SDS011;25019;42.626;23.380;2022-08-01T04:35:33;4.90;;;2.07;;
39300;SDS011;25019;42.626;23.380;2022-08-01T04:38:02;5.63;;;2.40;;
39300;SDS011;25019;42.626;23.380;2022-08-01T04:40:29;5.80;;;2.10;;
39300;SDS011;25019;42.626;23.380;2022-08-01T04:42:55;3.40;;;2.10;;
39300;SDS011;25019;42.626;23.380;2022-08-01T04:45:21;4.83;;;2.20;;
39300;SDS011;25019;42.626;23.380;2022-08-01T04:47:48;5.30;;;3.20;;
39300;SDS011;25019;42.626;23.380;2022-08-01T04:50:14;5.07;;;3.10;;
39300;SDS011;25019;42.626;23.380;2022-08-01T04:52:40;6.63;;;4.10;;
39300;SDS011;25019;42.626;23.380;2022-08-01T04:55:07;5.90;;;2.80;;
39300;SDS011;25019;42.626;23.380;2022-08-01T04:57:34;5.63;;;2.70;;
39300;SDS011;25019;42.626;23.380;2022-08-01T05:00:02;4.80;;;2.47;;
39300;SDS011;25019;42.626;23.380;2022-08-01T05:02:28;5.70;;;2.27;;
39300;SDS011;25019;42.626;23.380;2022-08-01T05:04:54;4.53;;;2.80;;
39300;SDS011;25019;42.626;23.380;2022-08-01T05:07:21;4.87;;;2.53;;
39300;SDS011;25019;42.626;23.380;2022-08-01T05:09:46;6.20;;;2.60;;
39300;SDS011;25019;42.626;23.380;2022-08-01T05:12:12;5.93;;;2.63;;
39300;SDS011;25019;42.626;23.380;2022-08-01T05:14:38;7.27;;;2.80;;
39300;SDS011;25019;42.626;23.380;2022-08-01T05:17:05;3.60;;;2.03;;
39300;SDS011;25019;42.626;23.380;2022-08-01T05:19:32;5.60;;;2.50;;
39300;SDS011;25019;42.626;23.380;2022-08-01T05:22:02;2.60;;;2.13;;
39300;SDS011;25019;42.626;23.380;2022-08-01T05:24:32;3.47;;;2.50;;
39300;SDS011;25019;42.626;23.380;2022-08-01T05:27:01;4.03;;;2.63;;
39300;SDS011;25019;42.626;23.380;2022-08-01T05:29:28;4.63;;;2.93;;
39300;SDS011;25019;42.626;23.380;2022-08-01T05:31:54;3.40;;;2.50;;
39300;SDS011;25019;42.626;23.380;2022-08-01T05:34:20;3.60;;;2.53;;
39300;SDS011;25019;42.626;23.380;2022-08-01T05:36:45;5.60;;;2.87;;
39300;SDS011;25019;42.626;23.380;2022-08-01T05:39:11;8.93;;;3.63;;
39300;SDS011;25019;42.626;23.380;2022-08-01T05:41:38;4.60;;;2.93;;
39300;SDS011;25019;42.626;23.380;2022-08-01T05:44:04;5.67;;;2.67;;
39300;SDS011;25019;42.626;23.380;2022-08-01T05:46:30;2.80;;;2.47;;
39300;SDS011;25019;42.626;23.380;2022-08-01T05:48:58;3.03;;;2.50;;
39300;SDS011;25019;42.626;23.380;2022-08-01T05:51:25;7.13;;;3.00;;
39300;SDS011;25019;42.626;23.380;2022-08-01T05:53:51;5.17;;;2.20;;
39300;SDS011;25019;42.626;23.380;2022-08-01T05:56:16;2.83;;;2.20;;
39300;SDS011;25019;42.626;23.380;2022-08-01T05:58:42;5.53;;;3.00;;
39300;SDS011;25019;42.626;23.380;2022-08-01T06:01:08;4.00;;;1.90;;
39300;SDS011;25019;42.626;23.380;2022-08-01T06:03:34;7.80;;;3.10;;
39300;SDS011;25019;42.626;23.380;2022-08-01T06:06:00;3.10;;;2.20;;
39300;SDS011;25019;42.626;23.380;2022-08-01T06:08:26;7.47;;;2.67;;
39300;SDS011;25019;42.626;23.380;2022-08-01T06:10:52;3.63;;;2.00;;
39300;SDS011;25019;42.626;23.380;2022-08-01T06:13:17;4.23;;;1.80;;
39300;SDS011;25019;42.626;23.380;2022-08-01T06:15:45;5.03;;;2.63;;
39300;SDS011;25019;42.626;23.380;2022-08-01T06:18:11;8.73;;;3.33;;
39300;SDS011;25019;42.626;23.380;2022-08-01T06:20:37;3.63;;;2.83;;
39300;SDS011;25019;42.626;23.380;2022-08-01T06:35:41;7.00;;;4.23;;
39300;SDS011;25019;42.626;23.380;2022-08-01T06:38:07;4.20;;;2.67;;
39300;SDS011;25019;42.626;23.380;2022-08-01T06:40:32;4.23;;;3.03;;
39300;SDS011;25019;42.626;23.380;2022-08-01T06:42:58;6.30;;;2.97;;
39300;SDS011;25019;42.626;23.380;2022-08-01T06:45:24;4.17;;;2.83;;
39300;SDS011;25019;42.626;23.380;2022-08-01T06:47:51;6.47;;;2.60;;
39300;SDS011;25019;42.626;23.380;2022-08-01T06:50:18;2.90;;;2.60;;
39300;SDS011;25019;42.626;23.380;2022-08-01T06:52:43;6.07;;;2.53;;
39300;SDS011;25019;42.626;23.380;2022-08-01T06:55:09;2.93;;;2.53;;
39300;SDS011;25019;42.626;23.380;2022-08-01T06:57:35;3.03;;;2.20;;
39300;SDS011;25019;42.626;23.380;2022-08-01T07:00:04;4.40;;;3.87;;
39300;SDS011;25019;42.626;23.380;2022-08-01T07:02:35;6.60;;;4.43;;
39300;SDS011;25019;42.626;23.380;2022-08-01T07:05:02;5.73;;;2.77;;
39300;SDS011;25019;42.626;23.380;2022-08-01T07:07:29;31.23;;;4.43;;
39300;SDS011;25019;42.626;23.380;2022-08-01T07:09:55;3.40;;;2.60;;
39300;SDS011;25019;42.626;23.380;2022-08-01T07:12:21;3.37;;;2.63;;
39300;SDS011;25019;42.626;23.380;2022-08-01T07:14:46;4.83;;;2.70;;
39300;SDS011;25019;42.626;23.380;2022-08-01T07:17:12;6.27;;;4.30;;
39300;SDS011;25019;42.626;23.380;2022-08-01T07:19:38;3.23;;;2.90;;
39300;SDS011;25019;42.626;23.380;2022-08-01T07:22:03;3.13;;;2.50;;
39300;SDS011;25019;42.626;23.380;2022-08-01T07:24:29;3.63;;;3.00;;
39300;SDS011;25019;42.626;23.380;2022-08-01T07:26:55;6.37;;;3.83;;
39300;SDS011;25019;42.626;23.380;2022-08-01T07:29:25;4.77;;;2.90;;
39300;SDS011;25019;42.626;23.380;2022-08-01T07:31:52;5.17;;;3.47;;
39300;SDS011;25019;42.626;23.380;2022-08-01T07:34:19;5.63;;;3.10;;
39300;SDS011;25019;42.626;23.380;2022-08-01T07:36:44;3.37;;;2.67;;
39300;SDS011;25019;42.626;23.380;2022-08-01T07:39:10;3.63;;;2.60;;
39300;SDS011;25019;42.626;23.380;2022-08-01T07:41:36;84.97;;;8.63;;
39300;SDS011;25019;42.626;23.380;2022-08-01T07:44:01;2.40;;;2.20;;
39300;SDS011;25019;42.626;23.380;2022-08-01T07:46:27;3.70;;;2.53;;
39300;SDS011;25019;42.626;23.380;2022-08-01T07:48:55;5.37;;;4.13;;
39300;SDS011;25019;42.626;23.380;2022-08-01T07:51:21;5.07;;;3.80;;
39300;SDS011;25019;42.626;23.380;2022-08-01T07:53:46;7.57;;;5.67;;
39300;SDS011;25019;42.626;23.380;2022-08-01T07:56:12;4.97;;;3.23;;
39300;SDS011;25019;42.626;23.380;2022-08-01T07:58:38;4.50;;;2.73;;
39300;SDS011;25019;42.626;23.380;2022-08-01T08:01:04;8.40;;;3.23;;
39300;SDS011;25019;42.626;23.380;2022-08-01T08:03:29;4.63;;;2.20;;
39300;SDS011;25019;42.626;23.380;2022-08-01T08:05:55;6.03;;;2.70;;
39300;SDS011;25019;42.626;23.380;2022-08-01T08:08:21;2.77;;;2.47;;
39300;SDS011;25019;42.626;23.380;2022-08-01T08:10:47;4.63;;;3.47;;
39300;SDS011;25019;42.626;23.380;2022-08-01T08:13:12;102.90;;;8.70;;
39300;SDS011;25019;42.626;23.380;2022-08-01T08:15:38;5.07;;;3.20;;
39300;SDS011;25019;42.626;23.380;2022-08-01T08:18:04;3.93;;;2.60;;
39300;SDS011;25019;42.626;23.380;2022-08-01T08:20:29;4.87;;;2.80;;
39300;SDS011;25019;42.626;23.380;2022-08-01T08:22:55;5.73;;;2.70;;
39300;SDS011;25019;42.626;23.380;2022-08-01T08:25:23;3.77;;;3.00;;
39300;SDS011;25019;42.626;23.380;2022-08-01T08:27:49;4.13;;;3.33;;
39300;SDS011;25019;42.626;23.380;2022-08-01T08:30:14;4.50;;;2.70;;
39300;SDS011;25019;42.626;23.380;2022-08-01T08:32:40;3.10;;;2.80;;
39300;SDS011;25019;42.626;23.380;2022-08-01T08:35:06;5.57;;;2.70;;
39300;SDS011;25019;42.626;23.380;2022-08-01T08:37:35;5.47;;;2.87;;
39300;SDS011;25019;42.626;23.380;2022-08-01T08:40:02;4.93;;;3.00;;
39300;SDS011;25019;42.626;23.380;2022-08-01T08:42:29;2.53;;;2.30;;
39300;SDS011;25019;42.626;23.380;2022-08-01T08:44:55;2.63;;;2.23;;
39300;SDS011;25019;42.626;23.380;2022-08-01T08:47:21;2.53;;;2.23;;
39300;SDS011;25019;42.626;23.380;2022-08-01T08:49:48;4.27;;;2.70;;
39300;SDS011;25019;42.626;23.380;2022-08-01T08:52:17;3.90;;;2.40;;
39300;SDS011;25019;42.626;23.380;2022-08-01T08:54:46;3.33;;;2.27;;
39300;SDS011;25019;42.626;23.380;2022-08-01T08:57:13;3.33;;;2.20;;
39300;SDS011;25019;42.626;23.380;2022-08-01T08:59:40;3.00;;;2.23;;
39300;SDS011;25019;42.626;23.380;2022-08-01T09:02:07;4.70;;;2.07;;
39300;SDS011;25019;42.626;23.380;2022-08-01T09:04:35;3.37;;;2.10;;
39300;SDS011;25019;42.626;23.380;2022-08-01T09:07:03;4.30;;;1.90;;
39300;SDS011;25019;42.626;23.380;2022-08-01T09:09:30;4.03;;;2.40;;
39300;SDS011;25019;42.626;23.380;2022-08-01T09:11:56;3.47;;;2.30;;
39300;SDS011;25019;42.626;23.380;2022-08-01T09:14:22;2.67;;;2.03;;
39300;SDS011;25019;42.626;23.380;2022-08-01T09:16:59;4.33;;;2.83;;
39300;SDS011;25019;42.626;23.380;2022-08-01T09:19:47;4.60;;;2.90;;
39300;SDS011;25019;42.626;23.380;2022-08-01T09:22:19;2.83;;;2.33;;
39300;SDS011;25019;42.626;23.380;2022-08-01T09:25:07;4.07;;;2.30;;
39300;SDS011;25019;42.626;23.380;2022-08-01T09:27:34;3.87;;;2.67;;
39300;SDS011;25019;42.626;23.380;2022-08-01T09:30:07;3.63;;;2.20;;
39300;SDS011;25019;42.626;23.380;2022-08-01T09:32:56;3.97;;;2.37;;
39300;SDS011;25019;42.626;23.380;2022-08-01T09:35:43;4.57;;;2.50;;
39300;SDS011;25019;42.626;23.380;2022-08-01T09:38:17;2.70;;;2.00;;
39300;SDS011;25019;42.626;23.380;2022-08-01T09:40:51;5.10;;;2.40;;
39300;SDS011;25019;42.626;23.380;2022-08-01T09:43:18;7.60;;;3.00;;
39300;SDS011;25019;42.626;23.380;2022-08-01T09:45:45;4.23;;;2.97;;
39300;SDS011;25019;42.626;23.380;2022-08-01T09:48:10;4.50;;;2.13;;
39300;SDS011;25019;42.626;23.380;2022-08-01T09:50:40;3.37;;;2.00;;
39300;SDS011;25019;42.626;23.380;2022-08-01T09:53:08;3.70;;;2.77;;
39300;SDS011;25019;42.626;23.380;2022-08-01T09:55:34;3.30;;;2.27;;
39300;SDS011;25019;42.626;23.380;2022-08-01T09:58:00;2.73;;;1.93;;
39300;SDS011;25019;42.626;23.380;2022-08-01T10:00:27;4.87;;;2.27;;
39300;SDS011;25019;42.626;23.380;2022-08-01T10:02:53;4.67;;;2.40;;
39300;SDS011;25019;42.626;23.380;2022-08-01T10:05:29;5.97;;;2.33;;
39300;SDS011;25019;42.626;23.380;2022-08-01T10:07:59;2.73;;;2.10;;
39300;SDS011;25019;42.626;23.380;2022-08-01T10:10:27;3.93;;;2.60;;
39300;SDS011;25019;42.626;23.380;2022-08-01T10:12:53;2.40;;;2.20;;
39300;SDS011;25019;42.626;23.380;2022-08-01T10:15:21;2.90;;;2.70;;
39300;SDS011;25019;42.626;23.380;2022-08-01T10:17:55;3.07;;;2.53;;
39300;SDS011;25019;42.626;23.380;2022-08-01T10:20:27;8.03;;;2.53;;
39300;SDS011;25019;42.626;23.380;2022-08-01T10:22:54;2.87;;;2.47;;
39300;SDS011;25019;42.626;23.380;2022-08-01T10:25:23;3.23;;;2.40;;
39300;SDS011;25019;42.626;23.380;2022-08-01T10:27:53;3.20;;;2.30;;
39300;SDS011;25019;42.626;23.380;2022-08-01T10:30:22;2.70;;;2.50;;
39300;SDS011;25019;42.626;23.380;2022-08-01T10:32:51;3.50;;;2.57;;
39300;SDS011;25019;42.626;23.380;2022-08-01T10:35:20;4.70;;;2.47;;
39300;SDS011;25019;42.626;23.380;2022-08-01T10:37:46;4.03;;;2.50;;
39300;SDS011;25019;42.626;23.380;2022-08-01T10:40:13;3.63;;;2.63;;
39300;SDS011;25019;42.626;23.380;2022-08-01T10:42:40;4.60;;;2.70;;
39300;SDS011;25019;42.626;23.380;2022-08-01T10:45:08;2.93;;;2.43;;
39300;SDS011;25019;42.626;23.380;2022-08-01T10:47:40;3.67;;;2.13;;
39300;SDS011;25019;42.626;23.380;2022-08-01T10:53:11;3.30;;;2.20;;
39300;SDS011;25019;42.626;23.380;2022-08-01T10:55:51;2.67;;;2.47;;
39300;SDS011;25019;42.626;23.380;2022-08-01T10:58:38;4.37;;;2.43;;
39300;SDS011;25019;42.626;23.380;2022-08-01T11:04:09;3.17;;;1.80;;
39300;SDS011;25019;42.626;23.380;2022-08-01T11:06:48;4.40;;;2.33;;
39300;SDS011;25019;42.626;23.380;2022-08-01T11:09:23;5.03;;;2.50;;
39300;SDS011;25019;42.626;23.380;2022-08-01T11:12:03;5.10;;;2.40;;
39300;SDS011;25019;42.626;23.380;2022-08-01T11:15:22;3.63;;;3.00;;
39300;SDS011;25019;42.626;23.380;2022-08-01T11:33:10;2.30;;;1.90;;
39300;SDS011;25019;42.626;23.380;2022-08-01T11:35:36;4.30;;;2.40;;
39300;SDS011;25019;42.626;23.380;2022-08-01T11:40:48;2.63;;;2.40;;
39300;SDS011;25019;42.626;23.380;2022-08-01T11:49:43;3.40;;;2.00;;
39300;SDS011;25019;42.626;23.380;2022-08-01T11:52:19;3.77;;;1.87;;
39300;SDS011;25019;42.626;23.380;2022-08-01T11:55:04;2.40;;;2.10;;
39300;SDS011;25019;42.626;23.380;2022-08-01T11:57:32;2.63;;;1.80;;
39300;SDS011;25019;42.626;23.380;2022-08-01T12:00:12;2.63;;;2.00;;
39300;SDS011;25019;42.626;23.380;2022-08-01T12:02:39;1.97;;;1.87;;
39300;SDS011;25019;42.626;23.380;2022-08-01T12:05:06;3.10;;;2.00;;
39300;SDS011;25019;42.626;23.380;2022-08-01T12:07:35;4.50;;;2.40;;
39300;SDS011;25019;42.626;23.380;2022-08-01T12:12:59;2.80;;;2.00;;
39300;SDS011;25019;42.626;23.380;2022-08-01T12:15:33;3.67;;;2.57;;
39300;SDS011;25019;42.626;23.380;2022-08-01T12:18:02;2.80;;;2.20;;
39300;SDS011;25019;42.626;23.380;2022-08-01T12:20:33;2.27;;;2.07;;
39300;SDS011;25019;42.626;23.380;2022-08-01T12:23:05;2.60;;;2.00;;
39300;SDS011;25019;42.626;23.380;2022-08-01T12:25:33;3.37;;;2.70;;
39300;SDS011;25019;42.626;23.380;2022-08-01T12:28:00;2.70;;;2.27;;
39300;SDS011;25019;42.626;23.380;2022-08-01T12:30:27;2.40;;;2.20;;
39300;SDS011;25019;42.626;23.380;2022-08-01T12:32:56;2.57;;;2.23;;
39300;SDS011;25019;42.626;23.380;2022-08-01T12:35:26;4.50;;;2.07;;
39300;SDS011;25019;42.626;23.380;2022-08-01T12:37:53;2.60;;;2.40;;
39300;SDS011;25019;42.626;23.380;2022-08-01T12:40:21;2.53;;;2.30;;
39300;SDS011;25019;42.626;23.380;2022-08-01T12:42:53;3.67;;;2.60;;
39300;SDS011;25019;42.626;23.380;2022-08-01T12:45:24;3.73;;;2.70;;
39300;SDS011;25019;42.626;23.380;2022-08-01T12:47:51;2.90;;;2.60;;
39300;SDS011;25019;42.626;23.380;2022-08-01T12:50:18;5.80;;;2.10;;
39300;SDS011;25019;42.626;23.380;2022-08-01T12:52:46;3.23;;;2.27;;
39300;SDS011;25019;42.626;23.380;2022-08-01T12:57:49;2.57;;;2.30;;
39300;SDS011;25019;42.626;23.380;2022-08-01T13:00:28;3.67;;;2.20;;
39300;SDS011;25019;42.626;23.380;2022-08-01T13:03:06;3.57;;;2.60;;
39300;SDS011;25019;42.626;23.380;2022-08-01T13:06:09;2.70;;;2.50;;
39300;SDS011;25019;42.626;23.380;2022-08-01T13:08:29;2.50;;;2.30;;
39300;SDS011;25019;42.626;23.380;2022-08-01T13:11:05;3.77;;;2.20;;
39300;SDS011;25019;42.626;23.380;2022-08-01T13:13:49;5.00;;;2.30;;
39300;SDS011;25019;42.626;23.380;2022-08-01T13:16:16;3.60;;;2.73;;
39300;SDS011;25019;42.626;23.380;2022-08-01T13:18:53;2.53;;;2.33;;
39300;SDS011;25019;42.626;23.380;2022-08-01T13:21:22;3.30;;;2.33;;
39300;SDS011;25019;42.626;23.380;2022-08-01T13:29:08;2.40;;;2.10;;
39300;SDS011;25019;42.626;23.380;2022-08-01T13:31:35;2.67;;;2.00;;
39300;SDS011;25019;42.626;23.380;2022-08-01T13:34:02;4.13;;;2.57;;
39300;SDS011;25019;42.626;23.380;2022-08-01T13:36:27;2.40;;;1.80;;
39300;SDS011;25019;42.626;23.380;2022-08-01T13:38:54;3.50;;;2.37;;
39300;SDS011;25019;42.626;23.380;2022-08-01T13:41:39;2.50;;;2.30;;
39300;SDS011;25019;42.626;23.380;2022-08-01T13:44:04;2.60;;;2.10;;
39300;SDS011;25019;42.626;23.380;2022-08-01T13:46:31;3.57;;;2.50;;
39300;SDS011;25019;42.626;23.380;2022-08-01T13:48:57;2.13;;;1.93;;
39300;SDS011;25019;42.626;23.380;2022-08-01T13:51:22;2.27;;;2.07;;
39300;SDS011;25019;42.626;23.380;2022-08-01T13:53:48;2.83;;;2.30;;
39300;SDS011;25019;42.626;23.380;2022-08-01T13:56:14;3.37;;;2.20;;
39300;SDS011;25019;42.626;23.380;2022-08-01T13:58:41;2.53;;;2.30;;
39300;SDS011;25019;42.626;23.380;2022-08-01T14:01:07;3.87;;;2.20;;
39300;SDS011;25019;42.626;23.380;2022-08-01T14:03:32;3.33;;;2.40;;
39300;SDS011;25019;42.626;23.380;2022-08-01T14:05:58;3.67;;;2.60;;
39300;SDS011;25019;42.626;23.380;2022-08-01T14:08:23;4.40;;;2.80;;
39300;SDS011;25019;42.626;23.380;2022-08-01T14:10:49;7.40;;;4.03;;
39300;SDS011;25019;42.626;23.380;2022-08-01T14:13:15;7.17;;;3.33;;
39300;SDS011;25019;42.626;23.380;2022-08-01T14:15:40;2.73;;;2.47;;
39300;SDS011;25019;42.626;23.380;2022-08-01T14:18:06;2.73;;;2.40;;
39300;SDS011;25019;42.626;23.380;2022-08-01T14:20:33;2.30;;;2.00;;
39300;SDS011;25019;42.626;23.380;2022-08-01T14:22:59;2.80;;;2.60;;
39300;SDS011;25019;42.626;23.380;2022-08-01T14:25:25;6.43;;;2.17;;
39300;SDS011;25019;42.626;23.380;2022-08-01T14:27:51;3.80;;;2.33;;
39300;SDS011;25019;42.626;23.380;2022-08-01T14:30:16;2.20;;;2.00;;
39300;SDS011;25019;42.626;23.380;2022-08-01T14:32:42;2.33;;;1.90;;
39300;SDS011;25019;42.626;23.380;2022-08-01T14:35:08;3.87;;;1.90;;
39300;SDS011;25019;42.626;23.380;2022-08-01T14:37:33;2.47;;;2.17;;
39300;SDS011;25019;42.626;23.380;2022-08-01T14:40:00;2.00;;;1.77;;
39300;SDS011;25019;42.626;23.380;2022-08-01T14:42:30;2.37;;;2.00;;
39300;SDS011;25019;42.626;23.380;2022-08-01T14:44:56;2.50;;;2.03;;
39300;SDS011;25019;42.626;23.380;2022-08-01T14:47:22;4.80;;;2.33;;
39300;SDS011;25019;42.626;23.380;2022-08-01T14:49:48;2.03;;;1.90;;
39300;SDS011;25019;42.626;23.380;2022-08-01T14:52:14;3.03;;;2.33;;
39300;SDS011;25019;42.626;23.380;2022-08-01T14:54:40;3.40;;;1.93;;
39300;SDS011;25019;42.626;23.380;2022-08-01T14:57:05;2.30;;;2.10;;
39300;SDS011;25019;42.626;23.380;2022-08-01T14:59:31;2.37;;;2.17;;
39300;SDS011;25019;42.626;23.380;2022-08-01T15:01:57;2.73;;;2.20;;
39300;SDS011;25019;42.626;23.380;2022-08-01T15:04:22;2.43;;;1.80;;
39300;SDS011;25019;42.626;23.380;2022-08-01T15:06:48;3.53;;;2.10;;
39300;SDS011;25019;42.626;23.380;2022-08-01T15:09:14;2.07;;;1.87;;
39300;SDS011;25019;42.626;23.380;2022-08-01T15:11:39;3.73;;;2.17;;
39300;SDS011;25019;42.626;23.380;2022-08-01T15:14:05;2.03;;;1.93;;
39300;SDS011;25019;42.626;23.380;2022-08-01T15:17:03;2.57;;;1.73;;
39300;SDS011;25019;42.626;23.380;2022-08-01T15:19:28;3.60;;;1.87;;
39300;SDS011;25019;42.626;23.380;2022-08-01T15:21:54;2.50;;;2.13;;
39300;SDS011;25019;42.626;23.380;2022-08-01T15:24:19;2.37;;;1.73;;
39300;SDS011;25019;42.626;23.380;2022-08-01T15:26:45;2.00;;;1.80;;
39300;SDS011;25019;42.626;23.380;2022-08-01T15:29:10;2.50;;;2.30;;
39300;SDS011;25019;42.626;23.380;2022-08-01T15:31:38;2.10;;;1.90;;
39300;SDS011;25019;42.626;23.380;2022-08-01T15:34:04;2.27;;;1.93;;
39300;SDS011;25019;42.626;23.380;2022-08-01T15:36:30;2.60;;;1.77;;
39300;SDS011;25019;42.626;23.380;2022-08-01T15:38:55;3.93;;;1.93;;
39300;SDS011;25019;42.626;23.380;2022-08-01T15:41:21;1.83;;;1.73;;